SAS2801 EKCH-LPPT
Flight info
| Callsign | SAS2801 |
|---|---|
| Flight time | N/A |
| Altitude | 34000 |
| Route | NEXEN T503 MICOS DCT IDOSA UN857 TOLVU/N0453F350 DCT RAPOR DCT ESTOC UT300 PON UN872 ERIGA UZ218 FUJTI DCT ATLEN DCT ABUPI DCT XAMAX |
| Aircraft | A321/M-SDE3FGIJ1RWXY/LB1 |
Departure
| Time | 2026-04-21 17:23 |
|---|---|
| Airport | Copenhagen Kastrup Airport (EKCH) |
Arrival
| Time | N/A |
|---|---|
| Airport | Lisbon Humberto Delgado Airport (LPPT) |
| Time | Latitude | Longitude | Altitude | Speed | Heading |
|---|---|---|---|---|---|
| 2026-04-21 16:45 | 55.62714 | 12.64452 | 27 ft | 0 kts | 102° |
| 2026-04-21 17:11 | 55.62714 | 12.64447 | 24 ft | 3 kts | 102° |
| 2026-04-21 17:12 | 55.62720 | 12.64401 | 27 ft | 3 kts | 102° |
| 2026-04-21 17:12 | 55.62727 | 12.64362 | 26 ft | 4 kts | 132° |
| 2026-04-21 17:12 | 55.62741 | 12.64353 | 28 ft | 4 kts | 216° |
| 2026-04-21 17:12 | 55.62762 | 12.64382 | 27 ft | 4 kts | 206° |
| 2026-04-21 17:13 | 55.62771 | 12.64389 | 25 ft | 0 kts | 192° |
| 2026-04-21 17:16 | 55.62769 | 12.64388 | 25 ft | 1 kts | 192° |
| 2026-04-21 17:16 | 55.62761 | 12.64383 | 24 ft | 2 kts | 199° |
| 2026-04-21 17:17 | 55.62745 | 12.64372 | 27 ft | 3 kts | 201° |
| 2026-04-21 17:17 | 55.62723 | 12.64354 | 26 ft | 4 kts | 205° |
| 2026-04-21 17:17 | 55.62694 | 12.64332 | 24 ft | 5 kts | 202° |
| 2026-04-21 17:17 | 55.62657 | 12.64306 | 24 ft | 6 kts | 202° |
| 2026-04-21 17:18 | 55.62618 | 12.64266 | 24 ft | 7 kts | 219° |
| 2026-04-21 17:18 | 55.62611 | 12.64186 | 24 ft | 7 kts | 293° |
| 2026-04-21 17:18 | 55.62639 | 12.64103 | 25 ft | 8 kts | 302° |
| 2026-04-21 17:18 | 55.62671 | 12.64012 | 25 ft | 9 kts | 302° |
| 2026-04-21 17:19 | 55.62703 | 12.63913 | 24 ft | 9 kts | 284° |
| 2026-04-21 17:19 | 55.62667 | 12.63831 | 24 ft | 7 kts | 215° |
| 2026-04-21 17:19 | 55.62621 | 12.63787 | 24 ft | 5 kts | 201° |
| 2026-04-21 17:19 | 55.62594 | 12.63775 | 24 ft | 0 kts | 189° |
| 2026-04-21 17:21 | 55.62591 | 12.63774 | 24 ft | 1 kts | 189° |
| 2026-04-21 17:21 | 55.62574 | 12.63772 | 24 ft | 4 kts | 184° |
| 2026-04-21 17:21 | 55.62535 | 12.63776 | 25 ft | 7 kts | 171° |
| 2026-04-21 17:21 | 55.62476 | 12.63806 | 22 ft | 10 kts | 161° |
| 2026-04-21 17:22 | 55.62433 | 12.63874 | 22 ft | 9 kts | 126° |
| 2026-04-21 17:22 | 55.62422 | 12.63904 | 21 ft | 0 kts | 122° |
| 2026-04-21 17:22 | 55.62309 | 12.64208 | 20 ft | 66 kts | 124° |
| 2026-04-21 17:23 | 55.61935 | 12.65220 | 24 ft | 129 kts | 123° |
| 2026-04-21 17:23 | 55.61343 | 12.66801 | 45 ft | 175 kts | 126° |
| 2026-04-21 17:23 | 55.60666 | 12.68533 | 813 ft | 169 kts | 124° |
| 2026-04-21 17:23 | 55.60015 | 12.70272 | 1500 ft | 173 kts | 122° |
| 2026-04-21 17:24 | 55.59292 | 12.72140 | 1748 ft | 197 kts | 133° |
| 2026-04-21 17:24 | 55.58126 | 12.73634 | 1987 ft | 218 kts | 157° |
| 2026-04-21 17:24 | 55.56638 | 12.74049 | 2590 ft | 221 kts | 183° |
| 2026-04-21 17:24 | 55.55037 | 12.73794 | 2912 ft | 243 kts | 187° |
| 2026-04-21 17:25 | 55.53282 | 12.73469 | 3234 ft | 262 kts | 185° |
| 2026-04-21 17:25 | 55.51439 | 12.73218 | 3807 ft | 270 kts | 183° |
| 2026-04-21 17:25 | 55.49558 | 12.73062 | 3963 ft | 270 kts | 181° |
| 2026-04-21 17:25 | 55.47674 | 12.72997 | 4136 ft | 273 kts | 180° |
| 2026-04-21 17:26 | 55.45779 | 12.72990 | 4918 ft | 272 kts | 178° |
| 2026-04-21 17:26 | 55.43876 | 12.73014 | 5652 ft | 274 kts | 178° |
| 2026-04-21 17:26 | 55.41957 | 12.73057 | 6355 ft | 277 kts | 177° |
| 2026-04-21 17:26 | 55.40019 | 12.73095 | 7025 ft | 280 kts | 180° |
| 2026-04-21 17:27 | 55.38088 | 12.72467 | 7648 ft | 287 kts | 199° |
| 2026-04-21 17:27 | 55.36334 | 12.70761 | 8273 ft | 292 kts | 218° |
| 2026-04-21 17:27 | 55.34960 | 12.68117 | 8890 ft | 296 kts | 238° |
| 2026-04-21 17:27 | 55.34044 | 12.64855 | 9505 ft | 300 kts | 246° |
| 2026-04-21 17:28 | 55.33188 | 12.61486 | 10131 ft | 304 kts | 246° |
| 2026-04-21 17:28 | 55.32315 | 12.58087 | 10706 ft | 307 kts | 246° |
| 2026-04-21 17:28 | 55.31415 | 12.54609 | 11011 ft | 322 kts | 245° |
| 2026-04-21 17:28 | 55.30457 | 12.50927 | 11155 ft | 341 kts | 245° |
| 2026-04-21 17:29 | 55.29443 | 12.47038 | 11274 ft | 359 kts | 245° |
| 2026-04-21 17:29 | 55.28384 | 12.42979 | 11555 ft | 371 kts | 245° |
| 2026-04-21 17:29 | 55.27302 | 12.38836 | 12045 ft | 376 kts | 245° |
| 2026-04-21 17:29 | 55.26209 | 12.34652 | 12579 ft | 379 kts | 245° |
| 2026-04-21 17:30 | 55.25105 | 12.30434 | 13110 ft | 383 kts | 245° |
| 2026-04-21 17:30 | 55.23988 | 12.26172 | 13663 ft | 386 kts | 245° |
| 2026-04-21 17:30 | 55.22861 | 12.21888 | 14170 ft | 390 kts | 245° |
| 2026-04-21 17:30 | 55.21705 | 12.17571 | 14630 ft | 392 kts | 242° |
| 2026-04-21 17:31 | 55.20239 | 12.13531 | 15115 ft | 394 kts | 231° |
| 2026-04-21 17:31 | 55.18387 | 12.09988 | 15571 ft | 396 kts | 220° |
| 2026-04-21 17:31 | 55.16222 | 12.07009 | 16053 ft | 397 kts | 214° |
| 2026-04-21 17:31 | 55.13980 | 12.04166 | 16527 ft | 400 kts | 214° |
| 2026-04-21 17:32 | 55.11751 | 12.01331 | 16987 ft | 403 kts | 214° |
| 2026-04-21 17:32 | 55.09477 | 11.98433 | 17460 ft | 406 kts | 214° |
| 2026-04-21 17:32 | 55.07187 | 11.95513 | 17922 ft | 409 kts | 214° |
| 2026-04-21 17:32 | 55.04880 | 11.92574 | 18375 ft | 412 kts | 214° |
| 2026-04-21 17:33 | 55.02557 | 11.89614 | 18783 ft | 415 kts | 214° |
| 2026-04-21 17:33 | 55.00218 | 11.86642 | 19139 ft | 418 kts | 213° |
| 2026-04-21 17:33 | 54.97857 | 11.83651 | 19514 ft | 421 kts | 213° |
| 2026-04-21 17:33 | 54.95481 | 11.80651 | 19880 ft | 424 kts | 213° |
| 2026-04-21 17:34 | 54.93082 | 11.77628 | 20261 ft | 427 kts | 213° |
| 2026-04-21 17:34 | 54.90668 | 11.74585 | 20614 ft | 430 kts | 213° |
| 2026-04-21 17:34 | 54.88242 | 11.71530 | 20971 ft | 433 kts | 213° |
| 2026-04-21 17:34 | 54.85794 | 11.68449 | 21331 ft | 436 kts | 213° |
| 2026-04-21 17:35 | 54.83329 | 11.65355 | 21679 ft | 439 kts | 212° |
| 2026-04-21 17:35 | 54.80848 | 11.62251 | 22041 ft | 441 kts | 212° |
| 2026-04-21 17:35 | 54.78346 | 11.59125 | 22400 ft | 444 kts | 212° |
| 2026-04-21 17:35 | 54.75835 | 11.55987 | 22744 ft | 447 kts | 212° |
| 2026-04-21 17:36 | 54.73302 | 11.52823 | 23099 ft | 450 kts | 212° |
| 2026-04-21 17:36 | 54.70756 | 11.49646 | 23464 ft | 453 kts | 212° |
| 2026-04-21 17:36 | 54.68190 | 11.46452 | 23793 ft | 456 kts | 212° |
| 2026-04-21 17:36 | 54.65609 | 11.43243 | 24095 ft | 459 kts | 212° |
| 2026-04-21 17:37 | 54.63010 | 11.40025 | 24390 ft | 461 kts | 212° |
| 2026-04-21 17:37 | 54.60400 | 11.36797 | 24688 ft | 463 kts | 212° |
| 2026-04-21 17:37 | 54.58661 | 11.34649 | 24880 ft | 464 kts | 212° |
| 2026-04-21 17:37 | 54.55151 | 11.30320 | 25317 ft | 465 kts | 211° |
| 2026-04-21 17:38 | 54.52510 | 11.27086 | 25611 ft | 467 kts | 211° |
| 2026-04-21 17:38 | 54.49853 | 11.23848 | 25907 ft | 469 kts | 211° |
| 2026-04-21 17:38 | 54.47187 | 11.20611 | 26211 ft | 471 kts | 211° |
| 2026-04-21 17:38 | 54.44504 | 11.17368 | 26486 ft | 473 kts | 211° |
| 2026-04-21 17:39 | 54.41806 | 11.14110 | 26769 ft | 475 kts | 211° |
| 2026-04-21 17:39 | 54.39099 | 11.10843 | 27047 ft | 477 kts | 211° |
| 2026-04-21 17:39 | 54.36382 | 11.07564 | 27328 ft | 479 kts | 211° |
| 2026-04-21 17:39 | 54.33690 | 11.04318 | 27596 ft | 481 kts | 211° |
| 2026-04-21 17:40 | 54.30949 | 11.01017 | 27865 ft | 483 kts | 211° |
| 2026-04-21 17:40 | 54.28175 | 10.97625 | 28131 ft | 485 kts | 212° |
| 2026-04-21 17:40 | 54.25488 | 10.94236 | 28388 ft | 487 kts | 213° |
| 2026-04-21 17:40 | 54.22778 | 10.90744 | 28660 ft | 489 kts | 213° |
| 2026-04-21 17:41 | 54.20064 | 10.87226 | 28907 ft | 490 kts | 213° |
| 2026-04-21 17:41 | 54.17341 | 10.83706 | 29129 ft | 492 kts | 213° |
| 2026-04-21 17:41 | 54.14564 | 10.80141 | 29348 ft | 493 kts | 213° |
| 2026-04-21 17:41 | 54.11847 | 10.76688 | 29593 ft | 494 kts | 213° |
| 2026-04-21 17:42 | 54.09092 | 10.73211 | 29904 ft | 493 kts | 212° |
| 2026-04-21 17:42 | 54.06332 | 10.69740 | 30201 ft | 493 kts | 212° |
| 2026-04-21 17:42 | 54.03576 | 10.66277 | 30473 ft | 492 kts | 212° |
| 2026-04-21 17:42 | 54.00822 | 10.62818 | 30740 ft | 491 kts | 212° |
| 2026-04-21 17:43 | 53.98078 | 10.59371 | 30998 ft | 490 kts | 213° |
| 2026-04-21 17:43 | 53.95339 | 10.55935 | 31284 ft | 489 kts | 213° |
| 2026-04-21 17:43 | 53.92605 | 10.52513 | 31556 ft | 487 kts | 213° |
| 2026-04-21 17:43 | 53.89883 | 10.49113 | 31865 ft | 485 kts | 213° |
| 2026-04-21 17:44 | 53.87176 | 10.45736 | 32143 ft | 483 kts | 213° |
| 2026-04-21 17:44 | 53.84474 | 10.42374 | 32407 ft | 482 kts | 213° |
| 2026-04-21 17:44 | 53.81772 | 10.39021 | 32662 ft | 481 kts | 213° |
| 2026-04-21 17:44 | 53.79078 | 10.35684 | 32931 ft | 480 kts | 213° |
| 2026-04-21 17:45 | 53.76391 | 10.32353 | 33170 ft | 479 kts | 213° |
| 2026-04-21 17:45 | 53.73707 | 10.29026 | 33416 ft | 478 kts | 213° |
| 2026-04-21 17:45 | 53.71025 | 10.25709 | 33639 ft | 477 kts | 213° |
| 2026-04-21 17:45 | 53.68345 | 10.22408 | 33881 ft | 476 kts | 213° |
| 2026-04-21 17:46 | 53.65671 | 10.19121 | 34110 ft | 475 kts | 213° |
| 2026-04-21 17:46 | 53.63000 | 10.15838 | 34307 ft | 475 kts | 213° |
| 2026-04-21 17:46 | 53.57672 | 10.09300 | 34351 ft | 473 kts | 213° |
| 2026-04-21 17:47 | 53.52353 | 10.02807 | 34351 ft | 472 kts | 213° |
| 2026-04-21 17:47 | 53.47033 | 9.96325 | 34354 ft | 472 kts | 213° |
| 2026-04-21 17:48 | 53.41717 | 9.89863 | 34348 ft | 472 kts | 213° |
| 2026-04-21 17:48 | 53.36391 | 9.83423 | 34356 ft | 472 kts | 213° |
| 2026-04-21 17:49 | 53.31063 | 9.76985 | 34357 ft | 473 kts | 213° |
| 2026-04-21 17:49 | 53.25727 | 9.70562 | 34359 ft | 473 kts | 212° |
| 2026-04-21 17:50 | 53.20384 | 9.64153 | 34366 ft | 473 kts | 212° |
| 2026-04-21 17:50 | 53.15042 | 9.57768 | 34354 ft | 473 kts | 212° |
| 2026-04-21 17:51 | 53.09695 | 9.51398 | 34356 ft | 473 kts | 212° |
| 2026-04-21 17:51 | 53.04347 | 9.45033 | 34348 ft | 473 kts | 212° |
| 2026-04-21 17:52 | 52.98995 | 9.38695 | 34355 ft | 472 kts | 212° |
| 2026-04-21 17:52 | 52.93640 | 9.32373 | 34344 ft | 472 kts | 212° |
| 2026-04-21 17:53 | 52.88285 | 9.26076 | 34357 ft | 472 kts | 212° |
| 2026-04-21 17:53 | 52.82924 | 9.19792 | 34351 ft | 472 kts | 212° |
| 2026-04-21 17:54 | 52.77568 | 9.13513 | 34346 ft | 472 kts | 212° |
| 2026-04-21 17:54 | 52.72206 | 9.07249 | 34347 ft | 472 kts | 212° |
| 2026-04-21 17:55 | 52.66842 | 9.01015 | 34328 ft | 471 kts | 212° |
| 2026-04-21 17:55 | 52.61481 | 8.94811 | 34354 ft | 471 kts | 212° |
| 2026-04-21 17:56 | 52.56114 | 8.88621 | 34340 ft | 471 kts | 212° |
| 2026-04-21 17:56 | 52.50747 | 8.82439 | 34336 ft | 471 kts | 212° |
| 2026-04-21 17:57 | 52.46246 | 8.77267 | 34336 ft | 471 kts | 212° |
| 2026-04-21 17:57 | 52.40870 | 8.71100 | 34339 ft | 472 kts | 212° |
| 2026-04-21 17:58 | 52.35527 | 8.64984 | 34337 ft | 472 kts | 212° |
| 2026-04-21 17:58 | 52.30137 | 8.58843 | 34334 ft | 472 kts | 212° |
| 2026-04-21 17:59 | 52.24744 | 8.52727 | 34332 ft | 472 kts | 212° |
| 2026-04-21 17:59 | 52.19346 | 8.46621 | 34351 ft | 472 kts | 212° |
| 2026-04-21 18:00 | 52.13942 | 8.40531 | 34334 ft | 473 kts | 212° |
| 2026-04-21 18:00 | 52.08532 | 8.34437 | 34320 ft | 472 kts | 212° |
| 2026-04-21 18:01 | 52.03126 | 8.28376 | 34327 ft | 472 kts | 212° |
| 2026-04-21 18:01 | 51.97716 | 8.22331 | 34336 ft | 472 kts | 213° |
| 2026-04-21 18:02 | 51.92315 | 8.16312 | 34332 ft | 471 kts | 213° |
| 2026-04-21 18:02 | 51.86913 | 8.10302 | 34324 ft | 471 kts | 213° |
| 2026-04-21 18:03 | 51.81503 | 8.04296 | 34322 ft | 470 kts | 213° |
| 2026-04-21 18:03 | 51.76121 | 7.98336 | 34322 ft | 470 kts | 213° |
| 2026-04-21 18:04 | 51.70728 | 7.92389 | 34313 ft | 469 kts | 213° |
| 2026-04-21 18:04 | 51.65334 | 7.86463 | 34305 ft | 469 kts | 213° |
| 2026-04-21 18:05 | 51.59940 | 7.80565 | 34295 ft | 469 kts | 213° |
| 2026-04-21 18:05 | 51.54541 | 7.74688 | 34308 ft | 469 kts | 213° |
| 2026-04-21 18:06 | 51.49181 | 7.68849 | 34283 ft | 469 kts | 214° |
| 2026-04-21 18:06 | 51.43788 | 7.62979 | 34290 ft | 468 kts | 214° |
| 2026-04-21 18:07 | 51.38393 | 7.57130 | 34295 ft | 468 kts | 213° |
| 2026-04-21 18:07 | 51.32996 | 7.51305 | 34309 ft | 468 kts | 214° |
| 2026-04-21 18:08 | 51.27600 | 7.45494 | 34304 ft | 468 kts | 214° |
| 2026-04-21 18:08 | 51.22201 | 7.39696 | 34301 ft | 467 kts | 214° |
| 2026-04-21 18:09 | 51.16805 | 7.33920 | 34293 ft | 467 kts | 214° |
| 2026-04-21 18:09 | 51.11404 | 7.28161 | 34284 ft | 467 kts | 214° |
| 2026-04-21 18:10 | 51.05999 | 7.22414 | 34277 ft | 467 kts | 214° |
| 2026-04-21 18:10 | 51.00594 | 7.16690 | 34268 ft | 467 kts | 214° |
| 2026-04-21 18:11 | 50.95187 | 7.10968 | 34271 ft | 467 kts | 214° |
| 2026-04-21 18:11 | 50.89780 | 7.05252 | 34249 ft | 467 kts | 215° |
| 2026-04-21 18:12 | 50.84367 | 6.99543 | 34257 ft | 468 kts | 215° |
| 2026-04-21 18:12 | 50.78942 | 6.93848 | 34265 ft | 468 kts | 215° |
| 2026-04-21 18:13 | 50.73511 | 6.88171 | 34246 ft | 468 kts | 215° |
| 2026-04-21 18:13 | 50.68081 | 6.82505 | 34249 ft | 468 kts | 215° |
| 2026-04-21 18:14 | 50.59924 | 6.74031 | 34267 ft | 468 kts | 215° |
| 2026-04-21 18:15 | 50.54487 | 6.68399 | 34257 ft | 468 kts | 215° |
| 2026-04-21 18:15 | 50.49051 | 6.62782 | 34249 ft | 468 kts | 215° |
| 2026-04-21 18:16 | 50.43610 | 6.57176 | 34245 ft | 468 kts | 216° |
| 2026-04-21 18:16 | 50.38167 | 6.51597 | 34241 ft | 467 kts | 216° |
| 2026-04-21 18:17 | 50.32697 | 6.46000 | 34222 ft | 467 kts | 216° |
| 2026-04-21 18:17 | 50.27290 | 6.40471 | 34234 ft | 466 kts | 216° |
| 2026-04-21 18:18 | 50.21860 | 6.34922 | 34232 ft | 466 kts | 216° |
| 2026-04-21 18:18 | 50.16433 | 6.29406 | 34237 ft | 465 kts | 216° |
| 2026-04-21 18:19 | 50.11006 | 6.23913 | 34242 ft | 465 kts | 216° |
| 2026-04-21 18:19 | 50.05586 | 6.18426 | 34244 ft | 465 kts | 216° |
| 2026-04-21 18:20 | 50.00161 | 6.12954 | 34241 ft | 465 kts | 217° |
| 2026-04-21 18:20 | 49.94733 | 6.07507 | 34254 ft | 464 kts | 217° |
| 2026-04-21 18:21 | 49.89302 | 6.02080 | 34230 ft | 464 kts | 217° |
| 2026-04-21 18:21 | 49.83882 | 5.96659 | 34235 ft | 464 kts | 217° |
| 2026-04-21 18:22 | 49.78499 | 5.91189 | 34223 ft | 460 kts | 222° |
| 2026-04-21 18:22 | 49.74158 | 5.84170 | 34204 ft | 445 kts | 242° |
| 2026-04-21 18:23 | 49.71558 | 5.75696 | 34226 ft | 433 kts | 256° |
| 2026-04-21 18:23 | 49.69528 | 5.66934 | 34230 ft | 433 kts | 255° |
| 2026-04-21 18:24 | 49.67490 | 5.58194 | 34223 ft | 433 kts | 255° |
| 2026-04-21 18:24 | 49.65436 | 5.49470 | 34221 ft | 432 kts | 255° |
| 2026-04-21 18:25 | 49.63366 | 5.40757 | 34220 ft | 432 kts | 255° |
| 2026-04-21 18:25 | 49.61353 | 5.32053 | 34205 ft | 430 kts | 257° |
| 2026-04-21 18:26 | 49.59506 | 5.23323 | 34224 ft | 427 kts | 258° |
| 2026-04-21 18:26 | 49.58121 | 5.14509 | 34222 ft | 422 kts | 263° |
| 2026-04-21 18:27 | 49.56810 | 5.05703 | 34217 ft | 422 kts | 263° |
| 2026-04-21 18:27 | 49.55455 | 4.96909 | 34217 ft | 421 kts | 262° |
| 2026-04-21 18:28 | 49.54100 | 4.88137 | 34201 ft | 420 kts | 263° |
| 2026-04-21 18:28 | 49.52759 | 4.79402 | 34215 ft | 419 kts | 263° |
| 2026-04-21 18:29 | 49.51418 | 4.70692 | 34213 ft | 418 kts | 263° |
| 2026-04-21 18:29 | 49.50063 | 4.62000 | 34214 ft | 418 kts | 263° |
| 2026-04-21 18:30 | 49.48705 | 4.53315 | 34214 ft | 418 kts | 263° |
| 2026-04-21 18:30 | 49.47342 | 4.44627 | 34189 ft | 417 kts | 263° |
| 2026-04-21 18:31 | 49.45977 | 4.35976 | 34219 ft | 416 kts | 263° |
| 2026-04-21 18:31 | 49.44608 | 4.27350 | 34215 ft | 415 kts | 263° |
| 2026-04-21 18:32 | 49.43236 | 4.18774 | 34219 ft | 412 kts | 263° |
| 2026-04-21 18:32 | 49.41869 | 4.10252 | 34221 ft | 410 kts | 263° |
| 2026-04-21 18:33 | 49.40501 | 4.01766 | 34221 ft | 409 kts | 263° |
| 2026-04-21 18:33 | 49.39134 | 3.93308 | 34223 ft | 408 kts | 263° |
| 2026-04-21 18:34 | 49.37755 | 3.84867 | 34207 ft | 408 kts | 263° |
| 2026-04-21 18:34 | 49.36371 | 3.76439 | 34213 ft | 407 kts | 263° |
| 2026-04-21 18:35 | 49.35221 | 3.69443 | 34209 ft | 407 kts | 263° |
| 2026-04-21 18:35 | 49.33602 | 3.59609 | 34212 ft | 407 kts | 263° |
| 2026-04-21 18:36 | 49.32204 | 3.51218 | 34173 ft | 406 kts | 263° |
| 2026-04-21 18:36 | 49.30814 | 3.42915 | 34192 ft | 405 kts | 263° |
| 2026-04-21 18:37 | 49.29407 | 3.34568 | 34202 ft | 404 kts | 263° |
| 2026-04-21 18:37 | 49.28006 | 3.26242 | 34204 ft | 404 kts | 263° |
| 2026-04-21 18:38 | 49.26602 | 3.17917 | 34202 ft | 403 kts | 262° |
| 2026-04-21 18:38 | 49.25188 | 3.09611 | 34157 ft | 403 kts | 262° |
| 2026-04-21 18:39 | 49.23766 | 3.01319 | 34175 ft | 403 kts | 262° |
| 2026-04-21 18:39 | 49.22343 | 2.93037 | 34191 ft | 403 kts | 262° |
| 2026-04-21 18:40 | 49.20909 | 2.84763 | 34196 ft | 403 kts | 262° |
| 2026-04-21 18:40 | 49.19708 | 2.77827 | 34192 ft | 403 kts | 262° |
| 2026-04-21 18:41 | 49.18269 | 2.69558 | 34195 ft | 402 kts | 262° |
| 2026-04-21 18:41 | 49.16824 | 2.61303 | 34156 ft | 402 kts | 261° |
| 2026-04-21 18:42 | 49.15371 | 2.53055 | 34167 ft | 402 kts | 261° |
| 2026-04-21 18:42 | 49.13911 | 2.44804 | 34173 ft | 402 kts | 261° |
| 2026-04-21 18:43 | 49.12690 | 2.36576 | 34177 ft | 397 kts | 268° |
| 2026-04-21 18:43 | 49.11932 | 2.28175 | 34178 ft | 397 kts | 267° |
| 2026-04-21 18:44 | 49.11150 | 2.19831 | 34142 ft | 397 kts | 267° |
| 2026-04-21 18:44 | 49.10355 | 2.11555 | 34165 ft | 397 kts | 267° |
| 2026-04-21 18:45 | 49.09356 | 2.03202 | 34178 ft | 403 kts | 258° |
| 2026-04-21 18:45 | 49.07128 | 1.95267 | 34182 ft | 408 kts | 252° |
| 2026-04-21 18:46 | 49.04761 | 1.87403 | 34175 ft | 408 kts | 252° |
| 2026-04-21 18:46 | 49.02405 | 1.79627 | 34185 ft | 407 kts | 252° |
| 2026-04-21 18:47 | 49.00021 | 1.71765 | 34172 ft | 406 kts | 251° |
| 2026-04-21 18:47 | 48.97653 | 1.63980 | 34179 ft | 405 kts | 251° |
| 2026-04-21 18:48 | 48.95288 | 1.56213 | 34186 ft | 404 kts | 251° |
| 2026-04-21 18:48 | 48.92923 | 1.48458 | 34188 ft | 404 kts | 251° |
| 2026-04-21 18:49 | 48.90550 | 1.40725 | 34190 ft | 404 kts | 251° |
| 2026-04-21 18:49 | 48.88574 | 1.34303 | 34186 ft | 404 kts | 251° |
| 2026-04-21 18:50 | 48.85810 | 1.25328 | 34160 ft | 404 kts | 251° |
| 2026-04-21 18:50 | 48.83406 | 1.17563 | 34180 ft | 404 kts | 250° |
| 2026-04-21 18:51 | 48.81013 | 1.09857 | 34177 ft | 404 kts | 250° |
| 2026-04-21 18:51 | 48.78614 | 1.02149 | 34178 ft | 404 kts | 250° |
| 2026-04-21 18:52 | 48.76222 | 0.94503 | 34182 ft | 404 kts | 250° |
| 2026-04-21 18:52 | 48.73664 | 0.86903 | 34153 ft | 408 kts | 245° |
| 2026-04-21 18:53 | 48.70700 | 0.79561 | 34160 ft | 409 kts | 244° |
| 2026-04-21 18:53 | 48.67721 | 0.72228 | 34163 ft | 409 kts | 244° |
| 2026-04-21 18:54 | 48.64734 | 0.64896 | 34135 ft | 409 kts | 244° |
| 2026-04-21 18:54 | 48.61748 | 0.57566 | 34147 ft | 410 kts | 244° |
| 2026-04-21 18:55 | 48.59242 | 0.51421 | 34156 ft | 410 kts | 244° |
| 2026-04-21 18:55 | 48.55756 | 0.42905 | 34126 ft | 411 kts | 243° |
| 2026-04-21 18:56 | 48.52744 | 0.35571 | 34138 ft | 411 kts | 243° |
| 2026-04-21 18:56 | 48.49728 | 0.28242 | 34141 ft | 412 kts | 243° |
| 2026-04-21 18:57 | 48.46703 | 0.20917 | 34144 ft | 412 kts | 243° |
| 2026-04-21 18:57 | 48.43667 | 0.13598 | 34132 ft | 412 kts | 243° |
| 2026-04-21 18:58 | 48.40631 | 0.06285 | 34140 ft | 411 kts | 243° |
| 2026-04-21 18:58 | 48.37591 | -0.01009 | 34122 ft | 411 kts | 243° |
| 2026-04-21 18:59 | 48.34451 | -0.08213 | 34123 ft | 413 kts | 239° |
| 2026-04-21 18:59 | 48.31003 | -0.15140 | 34128 ft | 415 kts | 237° |
| 2026-04-21 19:00 | 48.27479 | -0.21991 | 34121 ft | 414 kts | 238° |
| 2026-04-21 19:00 | 48.23992 | -0.28880 | 34125 ft | 414 kts | 238° |
| 2026-04-21 19:01 | 48.20493 | -0.35755 | 34096 ft | 415 kts | 237° |
| 2026-04-21 19:01 | 48.16981 | -0.42618 | 34096 ft | 415 kts | 237° |
| 2026-04-21 19:02 | 48.13466 | -0.49479 | 34093 ft | 415 kts | 237° |
| 2026-04-21 19:02 | 48.09940 | -0.56337 | 34090 ft | 415 kts | 237° |
| 2026-04-21 19:03 | 48.06410 | -0.63176 | 34092 ft | 415 kts | 237° |
| 2026-04-21 19:03 | 48.02885 | -0.70013 | 34091 ft | 415 kts | 237° |
| 2026-04-21 19:04 | 47.99354 | -0.76843 | 34096 ft | 415 kts | 237° |
| 2026-04-21 19:04 | 47.95815 | -0.83660 | 34092 ft | 415 kts | 236° |
| 2026-04-21 19:05 | 47.92271 | -0.90467 | 34083 ft | 416 kts | 236° |
| 2026-04-21 19:05 | 47.88719 | -0.97270 | 34072 ft | 416 kts | 236° |
| 2026-04-21 19:06 | 47.85158 | -1.04062 | 34068 ft | 416 kts | 236° |
| 2026-04-21 19:06 | 47.81596 | -1.10861 | 34069 ft | 416 kts | 236° |
| 2026-04-21 19:07 | 47.78031 | -1.17652 | 34059 ft | 416 kts | 236° |
| 2026-04-21 19:07 | 47.74465 | -1.24412 | 34075 ft | 415 kts | 236° |
| 2026-04-21 19:08 | 47.70910 | -1.31145 | 34073 ft | 414 kts | 235° |
| 2026-04-21 19:08 | 47.67354 | -1.37854 | 34070 ft | 413 kts | 235° |
| 2026-04-21 19:09 | 47.63797 | -1.44553 | 34065 ft | 413 kts | 235° |
| 2026-04-21 19:09 | 47.60239 | -1.51229 | 34058 ft | 413 kts | 235° |
| 2026-04-21 19:10 | 47.56509 | -1.57737 | 34050 ft | 415 kts | 231° |
| 2026-04-21 19:10 | 47.52601 | -1.64047 | 34045 ft | 416 kts | 231° |
| 2026-04-21 19:11 | 47.48681 | -1.70340 | 34036 ft | 416 kts | 231° |
| 2026-04-21 19:11 | 47.44788 | -1.76681 | 34034 ft | 416 kts | 231° |
| 2026-04-21 19:12 | 47.41545 | -1.82006 | 34034 ft | 416 kts | 231° |
| 2026-04-21 19:12 | 47.37040 | -1.89390 | 34016 ft | 416 kts | 231° |
| 2026-04-21 19:13 | 47.32619 | -1.94946 | 34009 ft | 423 kts | 215° |
| 2026-04-21 19:13 | 47.27573 | -1.99432 | 34007 ft | 424 kts | 215° |
| 2026-04-21 19:14 | 47.22532 | -2.03934 | 34007 ft | 424 kts | 215° |
| 2026-04-21 19:14 | 47.17490 | -2.08433 | 34007 ft | 424 kts | 214° |
| 2026-04-21 19:15 | 47.12445 | -2.12926 | 34015 ft | 424 kts | 214° |
| 2026-04-21 19:15 | 47.07407 | -2.17397 | 34015 ft | 423 kts | 214° |
| 2026-04-21 19:16 | 47.02372 | -2.21862 | 34008 ft | 422 kts | 214° |
| 2026-04-21 19:16 | 46.97343 | -2.26310 | 34007 ft | 422 kts | 214° |
| 2026-04-21 19:17 | 46.89803 | -2.32965 | 33996 ft | 422 kts | 214° |
| 2026-04-21 19:17 | 46.84774 | -2.37386 | 33998 ft | 422 kts | 214° |
| 2026-04-21 19:18 | 46.79740 | -2.41798 | 33997 ft | 422 kts | 214° |
| 2026-04-21 19:18 | 46.74708 | -2.46210 | 33997 ft | 422 kts | 214° |
| 2026-04-21 19:19 | 46.69682 | -2.50608 | 33988 ft | 421 kts | 214° |
| 2026-04-21 19:19 | 46.64659 | -2.54990 | 33987 ft | 421 kts | 214° |
| 2026-04-21 19:20 | 46.59639 | -2.59357 | 33972 ft | 420 kts | 214° |
| 2026-04-21 19:20 | 46.54625 | -2.63713 | 33971 ft | 420 kts | 214° |
| 2026-04-21 19:21 | 46.49612 | -2.68055 | 33963 ft | 419 kts | 214° |
| 2026-04-21 19:21 | 46.44612 | -2.72385 | 33959 ft | 418 kts | 214° |
| 2026-04-21 19:22 | 46.40461 | -2.75973 | 33955 ft | 418 kts | 214° |
| 2026-04-21 19:22 | 46.35475 | -2.80274 | 33947 ft | 417 kts | 214° |
| 2026-04-21 19:23 | 46.30482 | -2.84558 | 33947 ft | 417 kts | 213° |
| 2026-04-21 19:23 | 46.25623 | -2.89075 | 33939 ft | 413 kts | 222° |
| 2026-04-21 19:24 | 46.21241 | -2.94439 | 33942 ft | 413 kts | 223° |
| 2026-04-21 19:24 | 46.16862 | -2.99795 | 33933 ft | 412 kts | 222° |
| 2026-04-21 19:25 | 46.12481 | -3.05134 | 33915 ft | 412 kts | 222° |
| 2026-04-21 19:25 | 46.08096 | -3.10471 | 33914 ft | 413 kts | 222° |
| 2026-04-21 19:26 | 46.03706 | -3.15801 | 33915 ft | 413 kts | 222° |
| 2026-04-21 19:26 | 45.99305 | -3.21119 | 33927 ft | 412 kts | 222° |
| 2026-04-21 19:27 | 45.94921 | -3.26413 | 33921 ft | 411 kts | 222° |
| 2026-04-21 19:27 | 45.90539 | -3.31692 | 33915 ft | 411 kts | 221° |
| 2026-04-21 19:28 | 45.86164 | -3.36960 | 33917 ft | 410 kts | 221° |
| 2026-04-21 19:28 | 45.81783 | -3.42208 | 33917 ft | 410 kts | 221° |
| 2026-04-21 19:29 | 45.77406 | -3.47443 | 33911 ft | 410 kts | 221° |
| 2026-04-21 19:29 | 45.73031 | -3.52694 | 33910 ft | 410 kts | 221° |
| 2026-04-21 19:30 | 45.68659 | -3.57914 | 33918 ft | 408 kts | 220° |
| 2026-04-21 19:30 | 45.64303 | -3.63100 | 33914 ft | 407 kts | 220° |
| 2026-04-21 19:31 | 45.59957 | -3.68249 | 33908 ft | 406 kts | 220° |
| 2026-04-21 19:31 | 45.55618 | -3.73381 | 33899 ft | 405 kts | 220° |
| 2026-04-21 19:32 | 45.51286 | -3.78503 | 33892 ft | 404 kts | 220° |
| 2026-04-21 19:32 | 45.46960 | -3.83609 | 33894 ft | 403 kts | 220° |
| 2026-04-21 19:33 | 45.42638 | -3.88700 | 33902 ft | 403 kts | 220° |
| 2026-04-21 19:33 | 45.38322 | -3.93772 | 33895 ft | 402 kts | 219° |
| 2026-04-21 19:34 | 45.34011 | -3.98819 | 33887 ft | 401 kts | 219° |
| 2026-04-21 19:34 | 45.29717 | -4.03848 | 33873 ft | 400 kts | 219° |
| 2026-04-21 19:35 | 45.23273 | -4.11376 | 33870 ft | 400 kts | 219° |
| 2026-04-21 19:36 | 45.18976 | -4.16378 | 33866 ft | 400 kts | 219° |
| 2026-04-21 19:36 | 45.14678 | -4.21376 | 33864 ft | 400 kts | 219° |
| 2026-04-21 19:37 | 45.10370 | -4.26362 | 33851 ft | 400 kts | 219° |
| 2026-04-21 19:37 | 45.06071 | -4.31344 | 33850 ft | 400 kts | 219° |
| 2026-04-21 19:38 | 45.01795 | -4.36286 | 33848 ft | 400 kts | 219° |
| 2026-04-21 19:38 | 44.97488 | -4.41253 | 33847 ft | 400 kts | 219° |
| 2026-04-21 19:39 | 44.93175 | -4.46224 | 33841 ft | 400 kts | 219° |
| 2026-04-21 19:39 | 44.88861 | -4.51176 | 33824 ft | 400 kts | 218° |
| 2026-04-21 19:40 | 44.84531 | -4.56125 | 33828 ft | 401 kts | 219° |
| 2026-04-21 19:40 | 44.80197 | -4.61073 | 33837 ft | 401 kts | 218° |
| 2026-04-21 19:41 | 44.75870 | -4.66013 | 33831 ft | 400 kts | 218° |
| 2026-04-21 19:41 | 44.71546 | -4.70943 | 33828 ft | 400 kts | 218° |
| 2026-04-21 19:42 | 44.67217 | -4.75863 | 33821 ft | 400 kts | 218° |
| 2026-04-21 19:42 | 44.62891 | -4.80774 | 33822 ft | 400 kts | 218° |
| 2026-04-21 19:43 | 44.58563 | -4.85675 | 33815 ft | 400 kts | 218° |
| 2026-04-21 19:43 | 44.54233 | -4.90561 | 33816 ft | 400 kts | 218° |
| 2026-04-21 19:44 | 44.49854 | -4.95339 | 33817 ft | 399 kts | 212° |
| 2026-04-21 19:44 | 44.45152 | -4.99461 | 33816 ft | 399 kts | 211° |
| 2026-04-21 19:45 | 44.40445 | -5.03578 | 33814 ft | 399 kts | 211° |
| 2026-04-21 19:45 | 44.35740 | -5.07684 | 33813 ft | 399 kts | 211° |
| 2026-04-21 19:46 | 44.31032 | -5.11782 | 33812 ft | 399 kts | 211° |
| 2026-04-21 19:46 | 44.26318 | -5.15874 | 33807 ft | 399 kts | 210° |
| 2026-04-21 19:47 | 44.21596 | -5.19965 | 33803 ft | 399 kts | 210° |
| 2026-04-21 19:47 | 44.16877 | -5.24054 | 33798 ft | 400 kts | 210° |
| 2026-04-21 19:48 | 44.12151 | -5.28140 | 33799 ft | 400 kts | 210° |
| 2026-04-21 19:48 | 44.07426 | -5.32218 | 33799 ft | 400 kts | 210° |
| 2026-04-21 19:49 | 44.02700 | -5.36288 | 33814 ft | 399 kts | 210° |
| 2026-04-21 19:49 | 43.97974 | -5.40341 | 33807 ft | 399 kts | 210° |
| 2026-04-21 19:50 | 43.94050 | -5.43700 | 33803 ft | 399 kts | 210° |
| 2026-04-21 19:50 | 43.88537 | -5.48421 | 33786 ft | 398 kts | 210° |
| 2026-04-21 19:51 | 43.83826 | -5.52453 | 33779 ft | 398 kts | 210° |
| 2026-04-21 19:51 | 43.79109 | -5.56477 | 33778 ft | 398 kts | 210° |
| 2026-04-21 19:52 | 43.74394 | -5.60489 | 33772 ft | 398 kts | 210° |
| 2026-04-21 19:52 | 43.69678 | -5.64495 | 33765 ft | 398 kts | 210° |
| 2026-04-21 19:53 | 43.64965 | -5.68488 | 33765 ft | 397 kts | 209° |
| 2026-04-21 19:53 | 43.60257 | -5.72481 | 33785 ft | 397 kts | 209° |
| 2026-04-21 19:54 | 43.55555 | -5.76459 | 33781 ft | 396 kts | 209° |
| 2026-04-21 19:54 | 43.50853 | -5.80425 | 33776 ft | 396 kts | 209° |
| 2026-04-21 19:55 | 43.46158 | -5.84377 | 33776 ft | 396 kts | 209° |
| 2026-04-21 19:55 | 43.41459 | -5.88319 | 33776 ft | 396 kts | 209° |
| 2026-04-21 19:56 | 43.36763 | -5.92250 | 33771 ft | 395 kts | 209° |
| 2026-04-21 19:56 | 43.32063 | -5.96190 | 33771 ft | 395 kts | 209° |
| 2026-04-21 19:57 | 43.27363 | -6.00126 | 33772 ft | 396 kts | 209° |
| 2026-04-21 19:57 | 43.22647 | -6.04061 | 33745 ft | 398 kts | 210° |
| 2026-04-21 19:58 | 43.17887 | -6.08015 | 33758 ft | 400 kts | 210° |
| 2026-04-21 19:58 | 43.13105 | -6.11981 | 33768 ft | 404 kts | 210° |
| 2026-04-21 19:59 | 43.08281 | -6.15983 | 33765 ft | 406 kts | 210° |
| 2026-04-21 19:59 | 43.03440 | -6.19995 | 33775 ft | 407 kts | 210° |
| 2026-04-21 20:00 | 42.98586 | -6.24006 | 33773 ft | 407 kts | 210° |
| 2026-04-21 20:00 | 42.93766 | -6.27977 | 33775 ft | 408 kts | 210° |
| 2026-04-21 20:01 | 42.88909 | -6.31981 | 33784 ft | 408 kts | 210° |
| 2026-04-21 20:01 | 42.84050 | -6.35984 | 33797 ft | 408 kts | 210° |
| 2026-04-21 20:02 | 42.79987 | -6.39318 | 33813 ft | 405 kts | 210° |
| 2026-04-21 20:02 | 42.74398 | -6.43891 | 33814 ft | 402 kts | 210° |
| 2026-04-21 20:03 | 42.69610 | -6.47795 | 33813 ft | 400 kts | 210° |
| 2026-04-21 20:03 | 42.64838 | -6.51689 | 33807 ft | 399 kts | 210° |
| 2026-04-21 20:04 | 42.60075 | -6.55572 | 33795 ft | 400 kts | 210° |
| 2026-04-21 20:04 | 42.55307 | -6.59456 | 33795 ft | 400 kts | 210° |
| 2026-04-21 20:05 | 42.50529 | -6.63329 | 33796 ft | 400 kts | 210° |
| 2026-04-21 20:05 | 42.45751 | -6.67191 | 33789 ft | 400 kts | 210° |
| 2026-04-21 20:06 | 42.41778 | -6.70407 | 33779 ft | 400 kts | 210° |
| 2026-04-21 20:06 | 42.36984 | -6.74276 | 33761 ft | 402 kts | 211° |
| 2026-04-21 20:07 | 42.32178 | -6.78152 | 33764 ft | 403 kts | 211° |
| 2026-04-21 20:07 | 42.27351 | -6.82033 | 33764 ft | 404 kts | 211° |
| 2026-04-21 20:08 | 42.22518 | -6.85905 | 33786 ft | 404 kts | 212° |
| 2026-04-21 20:08 | 42.17675 | -6.89784 | 33776 ft | 405 kts | 213° |
| 2026-04-21 20:09 | 42.12825 | -6.93660 | 33776 ft | 406 kts | 213° |
| 2026-04-21 20:09 | 42.07969 | -6.97544 | 33796 ft | 406 kts | 213° |
| 2026-04-21 20:10 | 42.03113 | -7.01417 | 33803 ft | 406 kts | 213° |
| 2026-04-21 20:10 | 41.98248 | -7.05292 | 33803 ft | 406 kts | 213° |
| 2026-04-21 20:11 | 41.93377 | -7.09166 | 33761 ft | 408 kts | 213° |
| 2026-04-21 20:11 | 41.88497 | -7.13034 | 33756 ft | 408 kts | 213° |
| 2026-04-21 20:12 | 41.83603 | -7.16905 | 33770 ft | 409 kts | 213° |
| 2026-04-21 20:12 | 41.78693 | -7.20780 | 33772 ft | 410 kts | 213° |
| 2026-04-21 20:13 | 41.73779 | -7.24650 | 33775 ft | 410 kts | 215° |
| 2026-04-21 20:13 | 41.68837 | -7.28505 | 33772 ft | 411 kts | 214° |
| 2026-04-21 20:14 | 41.63885 | -7.32339 | 33789 ft | 412 kts | 214° |
| 2026-04-21 20:14 | 41.58922 | -7.36184 | 33794 ft | 412 kts | 214° |
| 2026-04-21 20:15 | 41.53961 | -7.40025 | 33800 ft | 412 kts | 214° |
| 2026-04-21 20:15 | 41.48997 | -7.43862 | 33784 ft | 413 kts | 214° |
| 2026-04-21 20:16 | 41.44018 | -7.47697 | 33790 ft | 413 kts | 214° |
| 2026-04-21 20:16 | 41.39039 | -7.51524 | 33794 ft | 413 kts | 214° |
| 2026-04-21 20:17 | 41.34052 | -7.55358 | 33804 ft | 414 kts | 214° |
| 2026-04-21 20:17 | 41.29069 | -7.59182 | 33799 ft | 414 kts | 214° |
| 2026-04-21 20:18 | 41.24081 | -7.62999 | 33825 ft | 413 kts | 214° |
| 2026-04-21 20:18 | 41.19098 | -7.66813 | 33830 ft | 413 kts | 214° |